sensor_id;sensor_type;location;lat;lon;timestamp;temperature;humidity
70548;DHT22;58099;43.406;3.698;2023-07-20T00:00:49;25.90;92.90
70548;DHT22;58099;43.406;3.698;2023-07-20T00:03:19;25.80;93.10
70548;DHT22;58099;43.406;3.698;2023-07-20T00:05:49;25.80;93.10
70548;DHT22;58099;43.406;3.698;2023-07-20T00:08:15;25.80;93.30
70548;DHT22;58099;43.406;3.698;2023-07-20T00:10:41;25.70;93.10
70548;DHT22;58099;43.406;3.698;2023-07-20T00:13:08;25.70;93.10
70548;DHT22;58099;43.406;3.698;2023-07-20T00:15:34;25.70;93.40
70548;DHT22;58099;43.406;3.698;2023-07-20T00:17:59;25.60;93.50
70548;DHT22;58099;43.406;3.698;2023-07-20T00:20:25;25.60;93.60
70548;DHT22;58099;43.406;3.698;2023-07-20T00:22:51;25.60;93.60
70548;DHT22;58099;43.406;3.698;2023-07-20T00:25:18;25.60;93.70
70548;DHT22;58099;43.406;3.698;2023-07-20T00:27:44;25.50;93.70
70548;DHT22;58099;43.406;3.698;2023-07-20T00:30:10;25.50;93.80
70548;DHT22;58099;43.406;3.698;2023-07-20T00:32:35;25.60;94.00
70548;DHT22;58099;43.406;3.698;2023-07-20T00:35:01;25.50;94.10
70548;DHT22;58099;43.406;3.698;2023-07-20T00:37:27;25.50;93.90
70548;DHT22;58099;43.406;3.698;2023-07-20T00:39:53;25.40;93.90
70548;DHT22;58099;43.406;3.698;2023-07-20T00:42:19;25.40;94.00
70548;DHT22;58099;43.406;3.698;2023-07-20T00:44:44;25.40;94.00
70548;DHT22;58099;43.406;3.698;2023-07-20T00:47:10;25.30;94.00
70548;DHT22;58099;43.406;3.698;2023-07-20T00:49:37;25.30;94.10
70548;DHT22;58099;43.406;3.698;2023-07-20T00:52:03;25.30;94.10
70548;DHT22;58099;43.406;3.698;2023-07-20T00:54:32;25.20;94.10
70548;DHT22;58099;43.406;3.698;2023-07-20T00:56:58;25.20;94.10
70548;DHT22;58099;43.406;3.698;2023-07-20T00:59:26;25.20;94.10
70548;DHT22;58099;43.406;3.698;2023-07-20T01:01:52;25.20;94.30
70548;DHT22;58099;43.406;3.698;2023-07-20T01:04:18;25.20;94.30
70548;DHT22;58099;43.406;3.698;2023-07-20T01:06:53;25.10;94.30
70548;DHT22;58099;43.406;3.698;2023-07-20T01:09:39;25.10;94.30
70548;DHT22;58099;43.406;3.698;2023-07-20T01:12:18;25.10;94.50
70548;DHT22;58099;43.406;3.698;2023-07-20T01:14:45;25.10;94.70
70548;DHT22;58099;43.406;3.698;2023-07-20T01:17:11;25.10;94.70
70548;DHT22;58099;43.406;3.698;2023-07-20T01:19:37;25.10;94.80
70548;DHT22;58099;43.406;3.698;2023-07-20T01:22:47;25.00;94.60
70548;DHT22;58099;43.406;3.698;2023-07-20T01:28:04;24.90;94.70
70548;DHT22;58099;43.406;3.698;2023-07-20T01:31:12;25.00;94.80
70548;DHT22;58099;43.406;3.698;2023-07-20T01:33:38;25.00;95.00
70548;DHT22;58099;43.406;3.698;2023-07-20T01:36:05;24.90;95.00
70548;DHT22;58099;43.406;3.698;2023-07-20T01:38:31;24.90;95.00
70548;DHT22;58099;43.406;3.698;2023-07-20T01:40:58;24.80;95.10
70548;DHT22;58099;43.406;3.698;2023-07-20T01:43:24;24.80;95.20
70548;DHT22;58099;43.406;3.698;2023-07-20T01:45:49;24.80;95.30
70548;DHT22;58099;43.406;3.698;2023-07-20T01:48:15;24.80;95.30
70548;DHT22;58099;43.406;3.698;2023-07-20T01:50:40;24.80;95.30
70548;DHT22;58099;43.406;3.698;2023-07-20T01:53:06;24.80;95.30
70548;DHT22;58099;43.406;3.698;2023-07-20T01:55:32;24.80;95.40
70548;DHT22;58099;43.406;3.698;2023-07-20T01:57:58;24.70;95.40
70548;DHT22;58099;43.406;3.698;2023-07-20T02:00:25;24.70;95.60
70548;DHT22;58099;43.406;3.698;2023-07-20T02:02:51;24.70;95.60
70548;DHT22;58099;43.406;3.698;2023-07-20T02:05:17;24.70;95.60
70548;DHT22;58099;43.406;3.698;2023-07-20T02:07:43;24.70;95.70
70548;DHT22;58099;43.406;3.698;2023-07-20T02:10:09;24.70;95.80
70548;DHT22;58099;43.406;3.698;2023-07-20T02:12:35;24.70;95.80
70548;DHT22;58099;43.406;3.698;2023-07-20T02:15:01;24.70;95.90
70548;DHT22;58099;43.406;3.698;2023-07-20T02:17:27;24.60;95.90
70548;DHT22;58099;43.406;3.698;2023-07-20T02:19:53;24.60;96.20
70548;DHT22;58099;43.406;3.698;2023-07-20T02:22:20;24.50;96.20
70548;DHT22;58099;43.406;3.698;2023-07-20T02:24:46;24.50;96.20
70548;DHT22;58099;43.406;3.698;2023-07-20T02:27:12;24.50;96.30
70548;DHT22;58099;43.406;3.698;2023-07-20T02:29:40;24.50;96.30
70548;DHT22;58099;43.406;3.698;2023-07-20T02:32:06;24.50;96.30
70548;DHT22;58099;43.406;3.698;2023-07-20T02:34:32;24.40;96.30
70548;DHT22;58099;43.406;3.698;2023-07-20T02:36:58;24.40;96.50
70548;DHT22;58099;43.406;3.698;2023-07-20T02:39:27;24.40;96.60
70548;DHT22;58099;43.406;3.698;2023-07-20T02:41:54;24.40;96.70
70548;DHT22;58099;43.406;3.698;2023-07-20T02:44:20;24.40;96.80
70548;DHT22;58099;43.406;3.698;2023-07-20T02:46:49;24.40;96.90
70548;DHT22;58099;43.406;3.698;2023-07-20T02:49:15;24.30;97.00
70548;DHT22;58099;43.406;3.698;2023-07-20T02:51:41;24.30;97.00
70548;DHT22;58099;43.406;3.698;2023-07-20T02:54:07;24.30;97.40
70548;DHT22;58099;43.406;3.698;2023-07-20T02:56:34;24.30;97.00
70548;DHT22;58099;43.406;3.698;2023-07-20T02:59:01;24.30;96.70
70548;DHT22;58099;43.406;3.698;2023-07-20T03:01:27;24.20;96.90
70548;DHT22;58099;43.406;3.698;2023-07-20T03:03:57;24.20;96.90
70548;DHT22;58099;43.406;3.698;2023-07-20T03:06:23;24.20;96.90
70548;DHT22;58099;43.406;3.698;2023-07-20T03:08:49;24.20;97.20
70548;DHT22;58099;43.406;3.698;2023-07-20T03:11:18;24.20;97.00
70548;DHT22;58099;43.406;3.698;2023-07-20T03:13:44;24.20;97.00
70548;DHT22;58099;43.406;3.698;2023-07-20T03:16:11;24.10;97.00
70548;DHT22;58099;43.406;3.698;2023-07-20T03:18:38;24.10;96.90
70548;DHT22;58099;43.406;3.698;2023-07-20T03:21:05;24.10;97.10
70548;DHT22;58099;43.406;3.698;2023-07-20T03:23:31;24.10;97.20
70548;DHT22;58099;43.406;3.698;2023-07-20T03:25:57;24.00;97.30
70548;DHT22;58099;43.406;3.698;2023-07-20T03:28:23;24.00;97.10
70548;DHT22;58099;43.406;3.698;2023-07-20T03:30:58;24.00;97.20
70548;DHT22;58099;43.406;3.698;2023-07-20T03:33:26;24.00;97.30
70548;DHT22;58099;43.406;3.698;2023-07-20T03:35:53;24.00;97.20
70548;DHT22;58099;43.406;3.698;2023-07-20T03:38:19;23.90;97.20
70548;DHT22;58099;43.406;3.698;2023-07-20T03:40:56;23.90;97.20
70548;DHT22;58099;43.406;3.698;2023-07-20T03:43:22;24.00;97.10
70548;DHT22;58099;43.406;3.698;2023-07-20T03:45:49;23.90;97.00
70548;DHT22;58099;43.406;3.698;2023-07-20T03:48:16;23.90;97.10
70548;DHT22;58099;43.406;3.698;2023-07-20T03:50:43;23.90;97.00
70548;DHT22;58099;43.406;3.698;2023-07-20T03:53:09;23.80;96.90
70548;DHT22;58099;43.406;3.698;2023-07-20T03:55:35;23.90;97.00
70548;DHT22;58099;43.406;3.698;2023-07-20T03:58:01;23.80;97.00
70548;DHT22;58099;43.406;3.698;2023-07-20T04:00:27;23.70;97.00
70548;DHT22;58099;43.406;3.698;2023-07-20T04:02:53;23.70;97.10
70548;DHT22;58099;43.406;3.698;2023-07-20T04:05:19;23.70;97.00
70548;DHT22;58099;43.406;3.698;2023-07-20T04:07:44;23.70;97.10
70548;DHT22;58099;43.406;3.698;2023-07-20T04:10:10;23.60;97.10
70548;DHT22;58099;43.406;3.698;2023-07-20T04:12:36;23.70;97.20
70548;DHT22;58099;43.406;3.698;2023-07-20T04:15:02;23.70;97.10
70548;DHT22;58099;43.406;3.698;2023-07-20T04:17:29;23.60;97.20
70548;DHT22;58099;43.406;3.698;2023-07-20T04:19:54;23.60;97.00
70548;DHT22;58099;43.406;3.698;2023-07-20T04:22:20;23.70;97.00
70548;DHT22;58099;43.406;3.698;2023-07-20T04:24:46;23.60;97.00
70548;DHT22;58099;43.406;3.698;2023-07-20T04:27:12;23.70;97.10
70548;DHT22;58099;43.406;3.698;2023-07-20T04:29:38;23.60;96.90
70548;DHT22;58099;43.406;3.698;2023-07-20T04:32:04;23.50;97.00
70548;DHT22;58099;43.406;3.698;2023-07-20T04:34:29;23.60;97.20
70548;DHT22;58099;43.406;3.698;2023-07-20T04:36:55;23.60;96.90
70548;DHT22;58099;43.406;3.698;2023-07-20T04:39:21;23.60;96.90
70548;DHT22;58099;43.406;3.698;2023-07-20T04:41:46;23.60;96.90
70548;DHT22;58099;43.406;3.698;2023-07-20T04:44:13;23.60;96.90
70548;DHT22;58099;43.406;3.698;2023-07-20T04:46:39;23.60;96.90
70548;DHT22;58099;43.406;3.698;2023-07-20T04:49:05;23.70;96.90
70548;DHT22;58099;43.406;3.698;2023-07-20T04:51:31;23.70;96.90
70548;DHT22;58099;43.406;3.698;2023-07-20T04:53:57;23.70;96.70
70548;DHT22;58099;43.406;3.698;2023-07-20T04:56:24;23.70;96.70
70548;DHT22;58099;43.406;3.698;2023-07-20T04:58:50;23.70;96.80
70548;DHT22;58099;43.406;3.698;2023-07-20T05:01:16;23.70;96.70
70548;DHT22;58099;43.406;3.698;2023-07-20T05:03:41;23.70;96.70
70548;DHT22;58099;43.406;3.698;2023-07-20T05:06:07;23.70;96.70
70548;DHT22;58099;43.406;3.698;2023-07-20T05:08:33;23.70;96.80
70548;DHT22;58099;43.406;3.698;2023-07-20T05:10:59;23.70;97.00
70548;DHT22;58099;43.406;3.698;2023-07-20T05:13:25;23.70;96.80
70548;DHT22;58099;43.406;3.698;2023-07-20T05:15:52;23.70;96.80
70548;DHT22;58099;43.406;3.698;2023-07-20T05:18:18;23.80;96.90
70548;DHT22;58099;43.406;3.698;2023-07-20T05:20:48;23.70;96.90
70548;DHT22;58099;43.406;3.698;2023-07-20T05:23:14;23.80;96.90
70548;DHT22;58099;43.406;3.698;2023-07-20T05:25:40;23.70;97.00
70548;DHT22;58099;43.406;3.698;2023-07-20T05:28:06;23.80;96.80
70548;DHT22;58099;43.406;3.698;2023-07-20T05:30:33;23.80;96.90
70548;DHT22;58099;43.406;3.698;2023-07-20T05:32:58;23.80;96.80
70548;DHT22;58099;43.406;3.698;2023-07-20T05:35:26;23.80;96.80
70548;DHT22;58099;43.406;3.698;2023-07-20T05:37:51;23.90;96.70
70548;DHT22;58099;43.406;3.698;2023-07-20T05:40:17;23.90;96.70
70548;DHT22;58099;43.406;3.698;2023-07-20T05:42:46;24.00;96.70
70548;DHT22;58099;43.406;3.698;2023-07-20T05:45:13;24.10;96.60
70548;DHT22;58099;43.406;3.698;2023-07-20T05:47:39;24.20;96.50
70548;DHT22;58099;43.406;3.698;2023-07-20T05:50:05;24.20;96.50
70548;DHT22;58099;43.406;3.698;2023-07-20T05:52:32;24.20;96.50
70548;DHT22;58099;43.406;3.698;2023-07-20T05:54:58;24.20;96.50
70548;DHT22;58099;43.406;3.698;2023-07-20T05:57:23;24.30;96.40
70548;DHT22;58099;43.406;3.698;2023-07-20T05:59:49;24.20;96.60
70548;DHT22;58099;43.406;3.698;2023-07-20T06:02:15;24.30;96.50
70548;DHT22;58099;43.406;3.698;2023-07-20T06:04:41;24.40;96.40
70548;DHT22;58099;43.406;3.698;2023-07-20T06:07:07;24.40;96.30
70548;DHT22;58099;43.406;3.698;2023-07-20T06:09:35;24.60;96.30
70548;DHT22;58099;43.406;3.698;2023-07-20T06:12:01;24.60;96.30
70548;DHT22;58099;43.406;3.698;2023-07-20T06:14:27;24.70;96.30
70548;DHT22;58099;43.406;3.698;2023-07-20T06:16:53;24.80;96.20
70548;DHT22;58099;43.406;3.698;2023-07-20T06:19:18;24.80;95.90
70548;DHT22;58099;43.406;3.698;2023-07-20T06:21:44;24.80;95.90
70548;DHT22;58099;43.406;3.698;2023-07-20T06:24:10;24.80;95.80
70548;DHT22;58099;43.406;3.698;2023-07-20T06:26:35;25.00;95.90
70548;DHT22;58099;43.406;3.698;2023-07-20T06:29:07;25.10;95.50
70548;DHT22;58099;43.406;3.698;2023-07-20T06:31:35;25.20;95.50
70548;DHT22;58099;43.406;3.698;2023-07-20T06:34:01;25.20;95.30
70548;DHT22;58099;43.406;3.698;2023-07-20T06:36:27;25.30;95.30
70548;DHT22;58099;43.406;3.698;2023-07-20T06:38:53;25.30;95.20
70548;DHT22;58099;43.406;3.698;2023-07-20T06:41:19;25.40;95.30
70548;DHT22;58099;43.406;3.698;2023-07-20T06:43:45;25.50;95.10
70548;DHT22;58099;43.406;3.698;2023-07-20T06:46:11;25.60;95.20
70548;DHT22;58099;43.406;3.698;2023-07-20T06:48:36;25.70;95.10
70548;DHT22;58099;43.406;3.698;2023-07-20T06:51:02;25.80;95.20
70548;DHT22;58099;43.406;3.698;2023-07-20T06:53:28;25.80;94.90
70548;DHT22;58099;43.406;3.698;2023-07-20T06:55:54;25.90;94.80
70548;DHT22;58099;43.406;3.698;2023-07-20T06:58:25;26.10;94.60
70548;DHT22;58099;43.406;3.698;2023-07-20T07:00:51;26.10;94.60
70548;DHT22;58099;43.406;3.698;2023-07-20T07:03:17;26.30;94.40
70548;DHT22;58099;43.406;3.698;2023-07-20T07:05:43;26.40;94.40
70548;DHT22;58099;43.406;3.698;2023-07-20T07:08:12;26.40;94.30
70548;DHT22;58099;43.406;3.698;2023-07-20T07:10:38;26.70;94.30
70548;DHT22;58099;43.406;3.698;2023-07-20T07:13:04;26.80;94.00
70548;DHT22;58099;43.406;3.698;2023-07-20T07:15:30;27.00;94.10
70548;DHT22;58099;43.406;3.698;2023-07-20T07:17:55;27.20;93.70
70548;DHT22;58099;43.406;3.698;2023-07-20T07:20:22;27.30;93.50
70548;DHT22;58099;43.406;3.698;2023-07-20T07:22:50;27.40;93.20
70548;DHT22;58099;43.406;3.698;2023-07-20T07:25:17;27.70;92.80
70548;DHT22;58099;43.406;3.698;2023-07-20T07:27:43;27.90;92.70
70548;DHT22;58099;43.406;3.698;2023-07-20T07:30:09;27.90;92.50
70548;DHT22;58099;43.406;3.698;2023-07-20T07:32:34;28.00;92.20
70548;DHT22;58099;43.406;3.698;2023-07-20T07:35:00;28.20;92.40
70548;DHT22;58099;43.406;3.698;2023-07-20T07:37:26;28.40;92.10
70548;DHT22;58099;43.406;3.698;2023-07-20T07:39:52;28.60;91.80
70548;DHT22;58099;43.406;3.698;2023-07-20T07:42:17;28.70;91.60
70548;DHT22;58099;43.406;3.698;2023-07-20T07:44:44;28.80;91.40
70548;DHT22;58099;43.406;3.698;2023-07-20T07:47:10;29.20;91.50
70548;DHT22;58099;43.406;3.698;2023-07-20T07:49:36;29.50;91.40
70548;DHT22;58099;43.406;3.698;2023-07-20T07:52:02;29.60;90.80
70548;DHT22;58099;43.406;3.698;2023-07-20T07:54:28;29.90;91.00
70548;DHT22;58099;43.406;3.698;2023-07-20T07:56:54;30.10;90.40
70548;DHT22;58099;43.406;3.698;2023-07-20T07:59:20;30.40;90.30
70548;DHT22;58099;43.406;3.698;2023-07-20T08:01:46;30.60;90.10
70548;DHT22;58099;43.406;3.698;2023-07-20T08:04:11;30.60;90.00
70548;DHT22;58099;43.406;3.698;2023-07-20T08:06:38;30.60;90.20
70548;DHT22;58099;43.406;3.698;2023-07-20T08:09:04;30.90;90.00
70548;DHT22;58099;43.406;3.698;2023-07-20T08:11:30;31.00;90.00
70548;DHT22;58099;43.406;3.698;2023-07-20T08:13:59;31.40;88.50
70548;DHT22;58099;43.406;3.698;2023-07-20T08:16:25;31.40;88.30
70548;DHT22;58099;43.406;3.698;2023-07-20T08:18:51;31.50;89.60
70548;DHT22;58099;43.406;3.698;2023-07-20T08:21:17;31.70;88.90
70548;DHT22;58099;43.406;3.698;2023-07-20T08:23:43;32.10;88.50
70548;DHT22;58099;43.406;3.698;2023-07-20T08:26:09;32.60;88.40
70548;DHT22;58099;43.406;3.698;2023-07-20T08:28:34;32.00;87.20
70548;DHT22;58099;43.406;3.698;2023-07-20T08:31:00;32.20;87.70
70548;DHT22;58099;43.406;3.698;2023-07-20T08:33:26;32.30;86.20
70548;DHT22;58099;43.406;3.698;2023-07-20T08:35:55;31.40;88.20
70548;DHT22;58099;43.406;3.698;2023-07-20T08:38:21;30.70;89.70
70548;DHT22;58099;43.406;3.698;2023-07-20T08:40:47;30.40;90.20
70548;DHT22;58099;43.406;3.698;2023-07-20T08:43:14;30.10;90.10
